Time;durP1;ratioP1;P1;durP2;ratioP2;P2;SDS_P1;SDS_P2;PMS_P1;PMS_P2;Temp;Humidity;BMP_temperature;BMP_pressure;BME280_temperature;BME280_humidity;BME280_pressure;Samples;Min_cycle;Max_cycle;Signal;HPM_P1;HPM_P2
2020/12/17 00:00:00;;;;;;;;;94.75;86.50;;;;;;;;5032365;28;8948;-71
2020/12/17 00:02:26;;;;;;;;;104.25;91.00;;;;;;;;5032391;28;8879;-70
2020/12/17 00:04:53;;;;;;;;;96.25;87.25;;;;;;;;5028355;28;8871;-70
2020/12/17 00:07:19;;;;;;;;;95.00;86.75;;;;;;;;5032427;28;8855;-70
2020/12/17 00:09:45;;;;;;;;;97.50;89.75;;;;;;;;5032532;28;9561;-69
2020/12/17 00:12:11;;;;;;;;;99.50;93.25;;;;;;;;5032251;28;8860;-70
2020/12/17 00:14:37;;;;;;;;;100.25;90.50;;;;;;;;5032343;28;8845;-71
2020/12/17 00:17:02;;;;;;;;;95.50;90.50;;;;;;;;5032433;28;8837;-71
2020/12/17 00:19:28;;;;;;;;;99.75;93.25;;;;;;;;5031970;28;8860;-70
2020/12/17 00:21:55;;;;;;;;;101.25;89.00;;;;;;;;5032393;28;8833;-70
2020/12/17 00:24:21;;;;;;;;;95.50;87.50;;;;;;;;5032544;28;8959;-71
2020/12/17 00:26:47;;;;;;;;;106.75;97.50;;;;;;;;5032341;28;8995;-71
2020/12/17 00:29:13;;;;;;;;;99.75;90.00;;;;;;;;5032244;28;8963;-71
2020/12/17 00:31:39;;;;;;;;;101.50;95.75;;;;;;;;5032526;28;8868;-71
2020/12/17 00:34:05;;;;;;;;;97.50;90.75;;;;;;;;5031959;28;9619;-71
2020/12/17 00:36:31;;;;;;;;;98.75;89.25;;;;;;;;5032111;28;9723;-71
2020/12/17 00:38:57;;;;;;;;;103.00;96.75;;;;;;;;5032171;28;8832;-70
2020/12/17 00:41:23;;;;;;;;;94.50;85.00;;;;;;;;5028222;28;8957;-71
2020/12/17 00:43:49;;;;;;;;;89.75;78.25;;;;;;;;5031851;28;8855;-71
2020/12/17 00:46:16;;;;;;;;;75.75;58.50;;;;;;;;5032015;28;8979;-72
2020/12/17 00:48:42;;;;;;;;;94.50;82.25;;;;;;;;5032112;28;8951;-71
2020/12/17 00:51:08;;;;;;;;;95.75;86.75;;;;;;;;5031211;28;8967;-71
2020/12/17 00:53:34;;;;;;;;;96.25;85.50;;;;;;;;5031956;28;8923;-72
2020/12/17 00:56:01;;;;;;;;;94.75;86.25;;;;;;;;5031391;28;9089;-70
2020/12/17 00:58:28;;;;;;;;;90.00;79.25;;;;;;;;5031665;28;8951;-71
2020/12/17 01:00:54;;;;;;;;;88.25;73.25;;;;;;;;5031585;28;8844;-71
2020/12/17 01:03:20;;;;;;;;;95.25;82.75;;;;;;;;5031494;28;8953;-71
2020/12/17 01:05:46;;;;;;;;;93.00;83.50;;;;;;;;5031706;28;8869;-70
2020/12/17 01:08:12;;;;;;;;;95.25;86.00;;;;;;;;5031544;28;8843;-71
2020/12/17 01:10:38;;;;;;;;;93.75;81.50;;;;;;;;5032560;28;9034;-69
2020/12/17 01:13:05;;;;;;;;;92.50;78.75;;;;;;;;5031243;28;8829;-69
2020/12/17 01:15:31;;;;;;;;;88.75;72.25;;;;;;;;5031598;28;8972;-70
2020/12/17 01:17:56;;;;;;;;;91.25;76.00;;;;;;;;5031709;28;8856;-70
2020/12/17 01:20:22;;;;;;;;;91.75;79.00;;;;;;;;5034586;28;8923;-70
2020/12/17 01:22:51;;;;;;;;;92.00;79.75;;;;;;;;5034720;28;8860;-71
2020/12/17 01:25:17;;;;;;;;;90.25;77.75;;;;;;;;5033826;28;8853;-71
2020/12/17 01:27:43;;;;;;;;;90.75;78.75;;;;;;;;5033252;28;8856;-71
2020/12/17 01:30:10;;;;;;;;;91.75;78.25;;;;;;;;5030712;28;8863;-71
2020/12/17 01:32:36;;;;;;;;;91.50;76.50;;;;;;;;5030630;28;8979;-71
2020/12/17 01:35:02;;;;;;;;;90.75;79.00;;;;;;;;5030942;28;8963;-71
2020/12/17 01:37:28;;;;;;;;;93.25;80.25;;;;;;;;5030894;28;8841;-71
2020/12/17 01:39:54;;;;;;;;;88.75;73.50;;;;;;;;5030618;28;8833;-71
2020/12/17 01:42:20;;;;;;;;;93.50;77.25;;;;;;;;5030815;28;8824;-70
2020/12/17 01:44:46;;;;;;;;;91.00;77.25;;;;;;;;5030607;28;8837;-71
2020/12/17 01:47:13;;;;;;;;;78.75;65.25;;;;;;;;5030678;28;8848;-74
2020/12/17 01:49:39;;;;;;;;;87.50;75.25;;;;;;;;5030403;28;9007;-71
2020/12/17 01:52:05;;;;;;;;;95.25;80.00;;;;;;;;5029953;28;8864;-70
2020/12/17 01:54:31;;;;;;;;;89.50;74.25;;;;;;;;5029955;28;8844;-70
2020/12/17 01:57:00;;;;;;;;;87.50;73.00;;;;;;;;5030120;28;8855;-70
2020/12/17 01:59:27;;;;;;;;;86.00;67.75;;;;;;;;5029796;28;8869;-70
2020/12/17 02:01:54;;;;;;;;;89.00;69.25;;;;;;;;5031571;28;8847;-69
2020/12/17 02:04:22;;;;;;;;;84.75;67.75;;;;;;;;5026520;28;9609;-68
2020/12/17 02:06:49;;;;;;;;;85.25;70.75;;;;;;;;5029364;28;8841;-70
2020/12/17 02:09:15;;;;;;;;;87.25;72.75;;;;;;;;5029955;28;9600;-70
2020/12/17 02:11:41;;;;;;;;;87.00;72.00;;;;;;;;5029795;28;9004;-71
2020/12/17 02:14:07;;;;;;;;;91.25;72.75;;;;;;;;5029458;28;9600;-70
2020/12/17 02:16:33;;;;;;;;;86.50;72.25;;;;;;;;5028570;28;8910;-70
2020/12/17 02:18:58;;;;;;;;;88.75;74.50;;;;;;;;5029275;28;8959;-69
2020/12/17 02:21:25;;;;;;;;;92.25;79.75;;;;;;;;5029700;28;8873;-69
2020/12/17 02:23:52;;;;;;;;;83.25;64.75;;;;;;;;5028039;28;8939;-70
2020/12/17 02:26:19;;;;;;;;;87.75;73.50;;;;;;;;5029851;28;8825;-70
2020/12/17 02:28:45;;;;;;;;;88.00;72.50;;;;;;;;5029156;28;8956;-71
2020/12/17 02:31:11;;;;;;;;;89.75;73.50;;;;;;;;5029310;28;8848;-70
2020/12/17 02:33:37;;;;;;;;;86.75;71.50;;;;;;;;5029815;28;8829;-71
2020/12/17 02:36:03;;;;;;;;;85.50;67.25;;;;;;;;5029288;28;8856;-70
2020/12/17 02:38:29;;;;;;;;;87.50;68.75;;;;;;;;5029779;28;8855;-70
2020/12/17 02:40:54;;;;;;;;;85.00;69.25;;;;;;;;5029476;28;8939;-70
2020/12/17 02:43:21;;;;;;;;;89.50;69.75;;;;;;;;5029787;28;8840;-71
2020/12/17 02:45:48;;;;;;;;;86.00;70.50;;;;;;;;5030127;28;8952;-71
2020/12/17 02:48:14;;;;;;;;;88.00;72.75;;;;;;;;5030126;28;8840;-70
2020/12/17 02:50:40;;;;;;;;;88.50;73.00;;;;;;;;5029877;28;8844;-70
2020/12/17 02:53:06;;;;;;;;;86.50;70.75;;;;;;;;5029559;28;8951;-71
2020/12/17 02:55:32;;;;;;;;;87.25;76.00;;;;;;;;5030024;28;8941;-71
2020/12/17 02:57:58;;;;;;;;;78.75;63.25;;;;;;;;5029651;28;8844;-71
2020/12/17 03:00:25;;;;;;;;;81.75;64.00;;;;;;;;5029839;28;8833;-71
2020/12/17 03:02:51;;;;;;;;;86.00;68.75;;;;;;;;5025709;28;8817;-71
2020/12/17 03:05:17;;;;;;;;;83.50;65.50;;;;;;;;5030304;28;9561;-72
2020/12/17 03:07:43;;;;;;;;;85.25;69.50;;;;;;;;5029881;28;8852;-72
2020/12/17 03:10:12;;;;;;;;;89.50;71.50;;;;;;;;5029816;28;8845;-72
2020/12/17 03:12:38;;;;;;;;;83.50;64.75;;;;;;;;5030034;28;8875;-71
2020/12/17 03:15:04;;;;;;;;;88.25;73.75;;;;;;;;5033411;28;8941;-71
2020/12/17 03:17:31;;;;;;;;;85.75;66.25;;;;;;;;5033714;28;9011;-71
2020/12/17 03:19:57;;;;;;;;;87.50;71.25;;;;;;;;5033623;28;8959;-71
2020/12/17 03:22:23;;;;;;;;;87.75;69.25;;;;;;;;5033723;28;8825;-71
2020/12/17 03:24:49;;;;;;;;;86.25;65.25;;;;;;;;5033343;28;8951;-72
2020/12/17 03:27:15;;;;;;;;;90.00;66.25;;;;;;;;5033912;28;8844;-71
2020/12/17 03:29:41;;;;;;;;;85.00;67.00;;;;;;;;5033368;28;8849;-71
2020/12/17 03:32:07;;;;;;;;;86.25;70.75;;;;;;;;5033235;28;8849;-70
2020/12/17 03:34:33;;;;;;;;;81.75;67.75;;;;;;;;5033495;28;9026;-70
2020/12/17 03:36:59;;;;;;;;;77.00;62.50;;;;;;;;5033260;28;8955;-71
2020/12/17 03:39:25;;;;;;;;;79.00;61.00;;;;;;;;5033393;28;8844;-71
2020/12/17 03:41:51;;;;;;;;;83.50;65.00;;;;;;;;5033153;28;9667;-72
2020/12/17 03:44:17;;;;;;;;;82.00;65.00;;;;;;;;5033317;28;8837;-71
2020/12/17 03:46:43;;;;;;;;;82.75;64.25;;;;;;;;5033310;28;8849;-71
2020/12/17 03:49:09;;;;;;;;;85.50;67.75;;;;;;;;5032925;28;8954;-71
2020/12/17 03:51:37;;;;;;;;;83.25;64.75;;;;;;;;5032897;28;8840;-71
2020/12/17 03:54:03;;;;;;;;;89.25;73.50;;;;;;;;5033159;28;8860;-72
2020/12/17 03:56:29;;;;;;;;;86.25;69.00;;;;;;;;5032961;28;9011;-71
2020/12/17 03:58:55;;;;;;;;;91.00;73.75;;;;;;;;5032682;28;8824;-72
2020/12/17 04:01:21;;;;;;;;;86.50;68.75;;;;;;;;5032998;28;8914;-72
2020/12/17 04:03:47;;;;;;;;;82.50;65.50;;;;;;;;5032608;28;8875;-72
2020/12/17 04:06:13;;;;;;;;;87.25;69.50;;;;;;;;5032853;28;8944;-71
2020/12/17 04:08:42;;;;;;;;;81.75;64.00;;;;;;;;5033084;28;8875;-71
2020/12/17 04:11:08;;;;;;;;;83.75;66.00;;;;;;;;5032387;28;8879;-71
2020/12/17 04:13:34;;;;;;;;;76.50;62.00;;;;;;;;5032926;28;8867;-71
2020/12/17 04:16:00;;;;;;;;;77.25;62.50;;;;;;;;5032409;28;8955;-71
2020/12/17 04:18:26;;;;;;;;;77.50;60.00;;;;;;;;5032561;28;8813;-71
2020/12/17 04:20:52;;;;;;;;;75.00;59.25;;;;;;;;5032464;28;9636;-71
2020/12/17 04:23:18;;;;;;;;;77.75;60.25;;;;;;;;5032732;28;8947;-71
2020/12/17 04:25:45;;;;;;;;;75.75;58.25;;;;;;;;5032037;28;9522;-71
2020/12/17 04:28:10;;;;;;;;;76.75;61.50;;;;;;;;5032164;28;8959;-71
2020/12/17 04:30:36;;;;;;;;;69.50;57.25;;;;;;;;5032387;28;8934;-71
2020/12/17 04:33:02;;;;;;;;;74.50;60.50;;;;;;;;5031884;28;8955;-70
2020/12/17 04:35:28;;;;;;;;;74.00;58.50;;;;;;;;5032249;28;8840;-71
2020/12/17 04:37:54;;;;;;;;;75.00;59.00;;;;;;;;5032026;28;8836;-71
2020/12/17 04:40:20;;;;;;;;;74.75;60.00;;;;;;;;5032205;28;8832;-70
2020/12/17 04:42:48;;;;;;;;;74.50;58.75;;;;;;;;5032284;28;8828;-71
2020/12/17 04:45:14;;;;;;;;;72.25;58.75;;;;;;;;5032130;28;8955;-70
2020/12/17 04:47:44;;;;;;;;;76.50;61.00;;;;;;;;5031977;28;8832;-70
2020/12/17 04:50:11;;;;;;;;;70.00;57.00;;;;;;;;5031861;28;9747;-70
2020/12/17 04:52:38;;;;;;;;;71.50;58.25;;;;;;;;5031881;28;8868;-71
2020/12/17 04:55:04;;;;;;;;;72.75;58.00;;;;;;;;5031670;28;8944;-70
2020/12/17 04:57:30;;;;;;;;;69.75;57.00;;;;;;;;5032160;28;9668;-71
2020/12/17 04:59:57;;;;;;;;;72.00;58.50;;;;;;;;5031408;28;9714;-71
2020/12/17 05:02:23;;;;;;;;;71.50;55.50;;;;;;;;5031688;28;8833;-71
2020/12/17 05:04:51;;;;;;;;;70.00;58.00;;;;;;;;5027650;28;8829;-70
2020/12/17 05:07:17;;;;;;;;;73.00;58.25;;;;;;;;5031593;28;8995;-71
2020/12/17 05:09:44;;;;;;;;;70.00;58.50;;;;;;;;5031535;28;8840;-71
2020/12/17 05:12:11;;;;;;;;;58.00;44.25;;;;;;;;5031591;28;8969;-71
2020/12/17 05:14:37;;;;;;;;;75.50;60.00;;;;;;;;5031302;28;8938;-71
2020/12/17 05:17:04;;;;;;;;;69.50;54.50;;;;;;;;5031272;28;8983;-71
2020/12/17 05:19:30;;;;;;;;;77.50;63.25;;;;;;;;5031487;28;8845;-71
2020/12/17 05:21:57;;;;;;;;;78.00;61.50;;;;;;;;5031305;28;8848;-70
2020/12/17 05:24:23;;;;;;;;;54.50;41.75;;;;;;;;5031637;28;8833;-71
2020/12/17 05:26:50;;;;;;;;;79.50;63.25;;;;;;;;5031123;28;8821;-71
2020/12/17 05:29:17;;;;;;;;;89.00;69.25;;;;;;;;5031356;28;8833;-71
2020/12/17 05:31:42;;;;;;;;;87.25;69.75;;;;;;;;5031554;28;8967;-71
2020/12/17 05:34:09;;;;;;;;;86.25;66.00;;;;;;;;5030912;28;8868;-72
2020/12/17 05:36:36;;;;;;;;;88.25;73.25;;;;;;;;5030420;28;8836;-71
2020/12/17 05:39:06;;;;;;;;;69.00;54.75;;;;;;;;5030945;28;8959;-71
2020/12/17 05:41:32;;;;;;;;;89.25;73.75;;;;;;;;5030893;28;8837;-72
2020/12/17 05:44:07;;;;;;;;;85.25;68.75;;;;;;;;5030942;28;8963;-72
2020/12/17 05:46:34;;;;;;;;;87.00;69.00;;;;;;;;5031174;28;8915;-72
2020/12/17 05:49:08;;;;;;;;;88.75;74.25;;;;;;;;5030607;28;8828;-71
2020/12/17 05:51:34;;;;;;;;;87.00;72.75;;;;;;;;5030741;28;8918;-72
2020/12/17 05:54:00;;;;;;;;;88.75;72.75;;;;;;;;5030895;28;8857;-71
2020/12/17 05:56:27;;;;;;;;;91.00;72.75;;;;;;;;5030584;28;9007;-72
2020/12/17 05:58:53;;;;;;;;;91.25;76.75;;;;;;;;5030783;28;8844;-72
2020/12/17 06:01:19;;;;;;;;;74.75;56.00;;;;;;;;5030479;28;8860;-71
2020/12/17 06:03:45;;;;;;;;;87.50;72.50;;;;;;;;5030925;28;8833;-71
2020/12/17 06:06:11;;;;;;;;;84.75;65.75;;;;;;;;5030533;28;8863;-71
2020/12/17 06:08:38;;;;;;;;;88.50;67.00;;;;;;;;5030551;28;9751;-72
2020/12/17 06:11:05;;;;;;;;;87.50;73.00;;;;;;;;5030240;28;8979;-71
2020/12/17 06:13:36;;;;;;;;;88.75;70.25;;;;;;;;5030753;28;8947;-72
2020/12/17 06:16:03;;;;;;;;;87.25;68.50;;;;;;;;5030144;28;8848;-71
2020/12/17 06:18:34;;;;;;;;;84.00;66.50;;;;;;;;5030518;28;8855;-71
2020/12/17 06:21:03;;;;;;;;;85.75;64.75;;;;;;;;5030198;28;8829;-72
2020/12/17 06:23:29;;;;;;;;;77.00;62.00;;;;;;;;5030629;28;8853;-74
2020/12/17 06:25:57;;;;;;;;;70.00;56.50;;;;;;;;5029960;28;8825;-70
2020/12/17 06:28:36;;;;;;;;;77.00;57.50;;;;;;;;5027473;28;8975;-73
2020/12/17 06:31:03;;;;;;;;;71.00;56.25;;;;;;;;5028995;28;8973;-71
2020/12/17 06:33:29;;;;;;;;;79.00;61.50;;;;;;;;5028847;28;8959;-70
2020/12/17 06:35:59;;;;;;;;;76.50;60.75;;;;;;;;5028456;28;8840;-73
2020/12/17 06:38:26;;;;;;;;;71.25;57.00;;;;;;;;5029272;28;8890;-69
2020/12/17 06:40:52;;;;;;;;;72.25;58.00;;;;;;;;5028174;28;8871;-69
2020/12/17 06:43:30;;;;;;;;;75.00;58.25;;;;;;;;5025237;28;8829;-70
2020/12/17 06:45:58;;;;;;;;;72.75;56.25;;;;;;;;5024986;28;9002;-69
2020/12/17 06:48:31;;;;;;;;;71.00;55.00;;;;;;;;5031594;28;8833;-71
2020/12/17 06:50:58;;;;;;;;;75.00;59.00;;;;;;;;5028011;28;8825;-68
2020/12/17 06:53:36;;;;;;;;;74.50;59.00;;;;;;;;5028629;28;8951;-71
2020/12/17 06:56:02;;;;;;;;;75.50;60.50;;;;;;;;5030006;28;8837;-75
2020/12/17 06:58:29;;;;;;;;;76.50;59.50;;;;;;;;5029068;28;8848;-72
2020/12/17 07:00:56;;;;;;;;;79.00;62.75;;;;;;;;5029452;28;8852;-73
2020/12/17 07:03:41;;;;;;;;;74.00;58.00;;;;;;;;5030396;28;8821;-73
2020/12/17 07:06:14;;;;;;;;;77.75;60.75;;;;;;;;5029011;28;8860;-73
2020/12/17 07:08:40;;;;;;;;;68.50;55.75;;;;;;;;5029700;28;8870;-72
2020/12/17 07:11:07;;;;;;;;;76.00;59.50;;;;;;;;5038027;22;8900;-79
2020/12/17 07:13:40;;;;;;;;;66.50;54.00;;;;;;;;5017197;28;8854;-79
2020/12/17 07:16:06;;;;;;;;;67.75;54.00;;;;;;;;5018894;28;9024;-78
2020/12/17 07:18:32;;;;;;;;;69.25;57.50;;;;;;;;5018561;28;8958;-77
2020/12/17 07:21:03;;;;;;;;;69.25;55.25;;;;;;;;5017553;28;8999;-75
2020/12/17 07:23:31;;;;;;;;;68.25;53.75;;;;;;;;5019775;28;8850;-76
2020/12/17 07:25:57;;;;;;;;;71.25;55.75;;;;;;;;5017638;28;8844;-76
2020/12/17 07:28:24;;;;;;;;;69.00;56.25;;;;;;;;5016719;28;8878;-75
2020/12/17 07:30:52;;;;;;;;;65.00;52.50;;;;;;;;5021153;28;8901;-75
2020/12/17 07:33:31;;;;;;;;;66.00;52.50;;;;;;;;5018869;28;8966;-77
2020/12/17 07:35:57;;;;;;;;;70.75;54.00;;;;;;;;5015814;28;9793;-76
2020/12/17 07:38:23;;;;;;;;;65.00;52.00;;;;;;;;5020053;28;8861;-76
2020/12/17 17:35:11;;;;;;;;;79.00;63.00;;;;;;;;5106601;27;13493;-79
2020/12/17 17:37:38;;;;;;;;;81.50;64.25;;;;;;;;5093941;28;8946;-77
2020/12/17 17:40:04;;;;;;;;;78.50;62.25;;;;;;;;5090554;28;8848;-70
2020/12/17 17:42:30;;;;;;;;;77.00;61.25;;;;;;;;5089913;28;8855;-77
2020/12/17 17:44:56;;;;;;;;;80.50;61.75;;;;;;;;5090989;28;8945;-74
2020/12/17 17:47:21;;;;;;;;;83.75;62.50;;;;;;;;5091309;28;9651;-82
2020/12/17 17:49:48;;;;;;;;;103.50;96.25;;;;;;;;5096687;28;8848;-71
2020/12/17 17:52:15;;;;;;;;;91.50;77.25;;;;;;;;5094251;28;8866;-76
2020/12/17 17:54:40;;;;;;;;;85.00;66.00;;;;;;;;5097958;28;8816;-76
2020/12/17 17:57:06;;;;;;;;;87.50;69.00;;;;;;;;5093329;28;8867;-75
2020/12/17 17:59:33;;;;;;;;;81.00;63.00;;;;;;;;5091126;28;8870;-76
2020/12/17 18:01:59;;;;;;;;;77.25;61.00;;;;;;;;5092151;28;8832;-74
2020/12/17 18:04:25;;;;;;;;;75.50;61.00;;;;;;;;5096029;28;8907;-70
2020/12/17 18:06:51;;;;;;;;;79.50;61.50;;;;;;;;5098873;28;8986;-71
2020/12/17 18:09:17;;;;;;;;;77.75;61.25;;;;;;;;5094923;28;8846;-72
2020/12/17 18:11:43;;;;;;;;;81.75;63.50;;;;;;;;5089006;28;8856;-72
2020/12/17 18:14:11;;;;;;;;;75.75;61.25;;;;;;;;5089517;28;8847;-72
2020/12/17 18:16:37;;;;;;;;;81.50;64.50;;;;;;;;5092730;28;8823;-71
2020/12/17 18:19:03;;;;;;;;;79.50;64.00;;;;;;;;5095586;28;9037;-72
2020/12/17 18:21:33;;;;;;;;;74.25;60.25;;;;;;;;5094183;28;8957;-71
2020/12/17 18:23:59;;;;;;;;;82.25;63.25;;;;;;;;5096052;28;8950;-68
2020/12/17 18:26:25;;;;;;;;;80.75;63.00;;;;;;;;5092927;28;9582;-73
2020/12/17 18:28:51;;;;;;;;;79.25;63.00;;;;;;;;5088304;28;8974;-73
2020/12/17 18:31:17;;;;;;;;;79.00;61.75;;;;;;;;5093027;28;8847;-73
2020/12/17 18:33:44;;;;;;;;;76.00;62.00;;;;;;;;5094198;28;8959;-72
2020/12/17 18:36:10;;;;;;;;;78.00;62.50;;;;;;;;5084901;28;8973;-73
2020/12/17 18:38:36;;;;;;;;;83.75;63.75;;;;;;;;5087237;28;8969;-73
2020/12/17 18:41:02;;;;;;;;;81.25;61.00;;;;;;;;5089045;28;8862;-70
2020/12/17 18:43:29;;;;;;;;;81.25;59.75;;;;;;;;5089766;28;8965;-71
2020/12/17 18:45:55;;;;;;;;;77.25;62.25;;;;;;;;5079691;28;8836;-72
2020/12/17 18:48:21;;;;;;;;;77.00;61.00;;;;;;;;5076145;28;8970;-72
2020/12/17 18:50:47;;;;;;;;;76.25;61.25;;;;;;;;5080265;28;9539;-72
2020/12/17 18:53:13;;;;;;;;;75.75;60.75;;;;;;;;5076548;28;8821;-72
2020/12/17 18:55:39;;;;;;;;;78.25;62.25;;;;;;;;5075539;28;8993;-72
2020/12/17 18:58:05;;;;;;;;;79.75;61.25;;;;;;;;5075673;28;8898;-68
2020/12/17 19:00:31;;;;;;;;;79.25;61.25;;;;;;;;5079016;28;8839;-69
2020/12/17 19:02:57;;;;;;;;;80.00;60.50;;;;;;;;5075462;28;8874;-73
2020/12/17 19:05:23;;;;;;;;;76.50;60.50;;;;;;;;5077386;28;8835;-69
2020/12/17 19:07:49;;;;;;;;;73.00;57.00;;;;;;;;5078311;28;8860;-68
2020/12/17 19:10:15;;;;;;;;;79.00;61.00;;;;;;;;5076851;28;8843;-69
2020/12/17 19:12:41;;;;;;;;;75.00;59.25;;;;;;;;5079727;28;8947;-69
2020/12/17 19:15:07;;;;;;;;;72.25;57.00;;;;;;;;5077529;28;8877;-71
2020/12/17 19:17:36;;;;;;;;;81.00;63.00;;;;;;;;5073777;28;8959;-73
2020/12/17 19:20:02;;;;;;;;;65.25;53.00;;;;;;;;5076224;28;8846;-72
2020/12/17 19:22:27;;;;;;;;;79.00;61.50;;;;;;;;5080249;28;8840;-76
2020/12/17 19:24:53;;;;;;;;;79.00;63.00;;;;;;;;5077654;28;8973;-72
2020/12/17 19:27:19;;;;;;;;;78.50;61.25;;;;;;;;5076692;28;8837;-75
2020/12/17 19:29:46;;;;;;;;;79.75;63.25;;;;;;;;5077650;28;8858;-75
2020/12/17 19:32:13;;;;;;;;;75.50;61.00;;;;;;;;5077065;28;8959;-75
2020/12/17 19:34:40;;;;;;;;;79.75;60.75;;;;;;;;5074315;28;8884;-74
2020/12/17 19:37:06;;;;;;;;;82.75;62.50;;;;;;;;5074558;28;8865;-73
2020/12/17 19:39:32;;;;;;;;;80.25;63.25;;;;;;;;5074128;28;9586;-73
2020/12/17 19:41:59;;;;;;;;;72.25;57.00;;;;;;;;5075863;28;8875;-73
2020/12/17 19:44:25;;;;;;;;;77.00;60.25;;;;;;;;5074026;28;9014;-75
2020/12/17 19:46:52;;;;;;;;;79.00;63.00;;;;;;;;5073547;28;8902;-83
2020/12/17 19:49:18;;;;;;;;;83.25;64.50;;;;;;;;5066275;28;8838;-75
2020/12/17 19:51:45;;;;;;;;;92.75;84.75;;;;;;;;5066976;28;8949;-86
2020/12/17 19:54:11;;;;;;;;;77.75;61.00;;;;;;;;5071273;28;8974;-85
2020/12/17 19:56:37;;;;;;;;;85.75;72.00;;;;;;;;5067838;28;8857;-78
2020/12/17 19:59:03;;;;;;;;;85.00;71.00;;;;;;;;5067965;28;8970;-80
2020/12/17 20:01:30;;;;;;;;;81.50;65.75;;;;;;;;5077467;28;8862;-77
2020/12/17 20:03:56;;;;;;;;;63.75;50.50;;;;;;;;5073326;28;8867;-83
2020/12/17 20:06:29;;;;;;;;;84.50;64.50;;;;;;;;5077653;28;8836;-87
2020/12/17 20:08:56;;;;;;;;;79.00;63.00;;;;;;;;5075770;28;8847;-84
2020/12/17 20:11:23;;;;;;;;;81.25;64.00;;;;;;;;5073510;28;8973;-78
2020/12/17 20:13:49;;;;;;;;;87.00;70.00;;;;;;;;5074444;28;8847;-79
2020/12/17 20:16:15;;;;;;;;;88.00;68.50;;;;;;;;5079153;28;9025;-84
2020/12/17 20:18:43;;;;;;;;;77.00;62.00;;;;;;;;5090922;28;8851;-79
2020/12/17 20:21:09;;;;;;;;;90.25;73.00;;;;;;;;5090126;28;8957;-80
2020/12/17 20:23:35;;;;;;;;;91.25;76.25;;;;;;;;5089003;28;8965;-81
2020/12/17 20:26:02;;;;;;;;;99.50;85.00;;;;;;;;5061363;28;85163;-73
2020/12/17 20:28:28;;;;;;;;;100.50;85.25;;;;;;;;5045091;28;8960;-74
2020/12/17 20:30:53;;;;;;;;;110.25;92.50;;;;;;;;5046664;28;8992;-74
2020/12/17 20:33:19;;;;;;;;;98.75;86.25;;;;;;;;5044983;28;8911;-72
2020/12/17 20:35:45;;;;;;;;;93.25;79.25;;;;;;;;5045863;28;9764;-73
2020/12/17 20:38:11;;;;;;;;;91.50;72.50;;;;;;;;5037932;28;8847;-76
2020/12/17 20:40:37;;;;;;;;;88.25;72.25;;;;;;;;5041774;28;8857;-72
2020/12/17 20:43:04;;;;;;;;;88.75;75.75;;;;;;;;5027416;28;9915;-72
2020/12/17 20:45:30;;;;;;;;;90.50;76.75;;;;;;;;5029942;28;8874;-73
2020/12/17 20:47:56;;;;;;;;;77.50;62.00;;;;;;;;5028228;28;8844;-75
2020/12/17 20:50:22;;;;;;;;;85.50;67.00;;;;;;;;5028916;28;8963;-74
2020/12/17 20:52:48;;;;;;;;;85.50;67.00;;;;;;;;5029698;28;8982;-73
2020/12/17 20:55:15;;;;;;;;;81.75;64.00;;;;;;;;5026278;28;9972;-74
2020/12/17 20:57:41;;;;;;;;;84.00;64.00;;;;;;;;5027604;28;8860;-73
2020/12/17 21:00:07;;;;;;;;;84.75;65.75;;;;;;;;5027264;28;8875;-73
2020/12/17 21:02:34;;;;;;;;;81.25;64.50;;;;;;;;5027356;28;8959;-73
2020/12/17 21:04:59;;;;;;;;;81.25;63.75;;;;;;;;5027542;28;8934;-72
2020/12/17 21:07:25;;;;;;;;;80.25;64.25;;;;;;;;5026950;28;8844;-73
2020/12/17 21:09:51;;;;;;;;;92.25;72.25;;;;;;;;5025350;28;8971;-72
2020/12/17 21:12:17;;;;;;;;;83.25;64.75;;;;;;;;5026761;28;8864;-72
2020/12/17 21:14:43;;;;;;;;;86.25;65.75;;;;;;;;5027597;28;8870;-72
2020/12/17 21:17:10;;;;;;;;;79.50;64.00;;;;;;;;5027542;28;8943;-72
2020/12/17 21:19:36;;;;;;;;;78.75;62.50;;;;;;;;5028859;28;8975;-75
2020/12/17 21:22:02;;;;;;;;;77.50;61.00;;;;;;;;5028847;28;8867;-74
2020/12/17 21:24:28;;;;;;;;;81.50;65.00;;;;;;;;5028125;28;8902;-73
2020/12/17 21:26:54;;;;;;;;;81.75;64.00;;;;;;;;5027820;28;8864;-73
2020/12/17 21:29:20;;;;;;;;;77.75;63.00;;;;;;;;5026946;28;8872;-73
2020/12/17 21:31:52;;;;;;;;;78.50;61.75;;;;;;;;5027698;28;8848;-73
2020/12/17 21:34:19;;;;;;;;;78.00;62.00;;;;;;;;5025003;28;8974;-72
2020/12/17 21:36:45;;;;;;;;;89.25;70.75;;;;;;;;5027633;28;8947;-73
2020/12/17 21:39:11;;;;;;;;;81.50;64.25;;;;;;;;5023974;28;8842;-71
2020/12/17 21:41:37;;;;;;;;;83.50;63.75;;;;;;;;5026046;28;8844;-70
2020/12/17 21:44:03;;;;;;;;;80.75;63.75;;;;;;;;5027388;28;8883;-70
2020/12/17 21:46:29;;;;;;;;;80.75;61.75;;;;;;;;5027396;28;8848;-71
2020/12/17 21:48:55;;;;;;;;;75.00;62.00;;;;;;;;5027772;28;8942;-72
2020/12/17 21:51:22;;;;;;;;;75.50;61.00;;;;;;;;5027158;28;9002;-71
2020/12/17 21:53:48;;;;;;;;;74.00;59.00;;;;;;;;5028216;28;8836;-72
2020/12/17 21:56:14;;;;;;;;;79.75;61.25;;;;;;;;5027465;28;8848;-72
2020/12/17 21:58:40;;;;;;;;;44.00;35.75;;;;;;;;5028307;28;9544;-71
2020/12/17 22:01:06;;;;;;;;;80.75;63.75;;;;;;;;5028732;28;9006;-73
2020/12/17 22:03:32;;;;;;;;;77.00;60.25;;;;;;;;5029026;28;8860;-71
2020/12/17 22:05:58;;;;;;;;;73.50;60.00;;;;;;;;5028413;28;8856;-71
2020/12/17 22:08:25;;;;;;;;;72.00;55.50;;;;;;;;5028283;28;8847;-71
2020/12/17 22:10:51;;;;;;;;;82.75;62.50;;;;;;;;5024300;28;8950;-71
2020/12/17 22:13:16;;;;;;;;;76.00;61.00;;;;;;;;5025584;28;8882;-71
2020/12/17 22:15:42;;;;;;;;;73.00;56.00;;;;;;;;5027726;28;9561;-72
2020/12/17 22:18:08;;;;;;;;;75.75;58.75;;;;;;;;5027093;28;8875;-71
2020/12/17 22:20:34;;;;;;;;;73.50;57.75;;;;;;;;5029507;28;8856;-71
2020/12/17 22:23:00;;;;;;;;;75.25;59.25;;;;;;;;5032013;28;8874;-72
2020/12/17 22:25:27;;;;;;;;;72.00;55.25;;;;;;;;5031208;28;8852;-71
2020/12/17 22:27:53;;;;;;;;;74.75;59.25;;;;;;;;5031637;28;8910;-71
2020/12/17 22:30:19;;;;;;;;;73.50;57.50;;;;;;;;5031213;28;8848;-71
2020/12/17 22:32:45;;;;;;;;;74.50;60.00;;;;;;;;5029824;28;8867;-72
2020/12/17 22:35:10;;;;;;;;;81.25;63.75;;;;;;;;5032646;28;8963;-71
2020/12/17 22:37:36;;;;;;;;;80.00;61.50;;;;;;;;5033075;28;8856;-71
2020/12/17 22:40:02;;;;;;;;;75.75;61.25;;;;;;;;5029530;28;8840;-72
2020/12/17 22:42:29;;;;;;;;;76.00;61.25;;;;;;;;5031313;28;8967;-72
2020/12/17 22:44:55;;;;;;;;;75.25;58.75;;;;;;;;5031087;28;8987;-71
2020/12/17 22:47:21;;;;;;;;;75.75;60.75;;;;;;;;5033023;28;9576;-72
2020/12/17 22:49:47;;;;;;;;;79.75;63.75;;;;;;;;5033205;28;8970;-72
2020/12/17 22:52:13;;;;;;;;;75.75;59.50;;;;;;;;5029774;28;8939;-73
2020/12/17 22:54:39;;;;;;;;;72.75;58.75;;;;;;;;5032412;28;8840;-72
2020/12/17 22:57:05;;;;;;;;;76.00;60.00;;;;;;;;5031605;28;8998;-72
2020/12/17 22:59:32;;;;;;;;;75.25;58.00;;;;;;;;5031494;28;8902;-73
2020/12/17 23:01:58;;;;;;;;;74.75;57.50;;;;;;;;5031525;28;8856;-75
2020/12/17 23:04:24;;;;;;;;;78.50;61.25;;;;;;;;5028168;28;8851;-73
2020/12/17 23:06:50;;;;;;;;;75.75;61.00;;;;;;;;5030396;28;8846;-73
2020/12/17 23:09:16;;;;;;;;;74.75;61.00;;;;;;;;5030714;28;8844;-73
2020/12/17 23:11:46;;;;;;;;;74.50;57.50;;;;;;;;5026010;28;8883;-73
2020/12/17 23:14:12;;;;;;;;;75.75;60.75;;;;;;;;5032962;28;8829;-75
2020/12/17 23:16:39;;;;;;;;;72.00;56.50;;;;;;;;5028739;28;8933;-77
2020/12/17 23:19:06;;;;;;;;;75.50;61.75;;;;;;;;5031924;28;10031;-74
2020/12/17 23:21:33;;;;;;;;;74.25;58.50;;;;;;;;5024527;28;8875;-75
2020/12/17 23:23:58;;;;;;;;;78.50;61.00;;;;;;;;5028837;28;8958;-74
2020/12/17 23:26:27;;;;;;;;;77.00;60.25;;;;;;;;5030349;28;8851;-74
2020/12/17 23:28:53;;;;;;;;;75.50;61.50;;;;;;;;5032513;28;8832;-75
2020/12/17 23:31:20;;;;;;;;;72.75;56.00;;;;;;;;5027923;28;8843;-75
2020/12/17 23:33:48;;;;;;;;;76.75;60.00;;;;;;;;5032662;28;8829;-74
2020/12/17 23:36:15;;;;;;;;;74.75;58.50;;;;;;;;5028668;28;8839;-73
2020/12/17 23:38:41;;;;;;;;;75.50;59.25;;;;;;;;5024395;28;8835;-73
2020/12/17 23:41:07;;;;;;;;;72.00;55.25;;;;;;;;5032232;28;8859;-73
2020/12/17 23:43:33;;;;;;;;;71.50;57.75;;;;;;;;5032293;28;8836;-75
2020/12/17 23:45:59;;;;;;;;;75.00;59.75;;;;;;;;5032382;28;8968;-76
2020/12/17 23:48:25;;;;;;;;;75.00;59.25;;;;;;;;5032030;28;8958;-74
2020/12/17 23:50:52;;;;;;;;;75.00;58.75;;;;;;;;5032116;28;8983;-76
2020/12/17 23:53:18;;;;;;;;;75.50;60.25;;;;;;;;5031607;28;8990;-74
2020/12/17 23:55:44;;;;;;;;;78.75;61.25;;;;;;;;5032154;28;8844;-75
2020/12/17 23:58:09;;;;;;;;;70.00;56.25;;;;;;;;5031456;28;8840;-74
